Time;durP1;ratioP1;P1;durP2;ratioP2;P2;SDS_P1;SDS_P2;PMS_P1;PMS_P2;Temp;Humidity;BMP_temperature;BMP_pressure;BME280_temperature;BME280_humidity;BME280_pressure;Samples;Min_cycle;Max_cycle;Signal;HPM_P1;HPM_P2
2022/10/27 00:00:58;;;;;;;4.05;2.70;;;;;;;11.62;100.00;101948.88;4983527;28;20037;-78
2022/10/27 00:03:23;;;;;;;7.15;2.55;;;;;;;11.60;100.00;101936.06;4973354;28;21631;-78
2022/10/27 00:05:48;;;;;;;10.27;3.45;;;;;;;11.61;100.00;101939.47;5005172;28;20491;-77
2022/10/27 00:08:16;;;;;;;9.27;3.03;;;;;;;11.60;100.00;101930.84;5000145;28;21784;-77
2022/10/27 00:10:43;;;;;;;6.32;3.13;;;;;;;11.61;100.00;101936.88;5001894;28;20029;-78
2022/10/27 00:13:10;;;;;;;9.57;3.53;;;;;;;11.59;100.00;101943.97;4987040;28;20042;-78
2022/10/27 00:15:35;;;;;;;5.55;3.20;;;;;;;11.58;100.00;101937.13;4994726;28;20041;-78
2022/10/27 00:18:09;;;;;;;8.15;3.00;;;;;;;11.57;100.00;101935.50;5001499;28;20034;-78
2022/10/27 00:20:35;;;;;;;11.15;3.45;;;;;;;11.56;100.00;101939.03;5001512;28;20045;-79
2022/10/27 00:23:01;;;;;;;5.53;2.88;;;;;;;11.52;100.00;101933.28;5004245;28;20030;-79
2022/10/27 00:25:26;;;;;;;5.93;3.05;;;;;;;11.48;100.00;101943.13;4986010;28;20045;-79
2022/10/27 00:27:52;;;;;;;6.40;2.95;;;;;;;11.48;100.00;101943.13;5002915;28;20050;-78
2022/10/27 00:30:17;;;;;;;5.78;2.63;;;;;;;11.46;100.00;101950.22;5006096;28;20034;-78
2022/10/27 00:32:43;;;;;;;5.00;2.70;;;;;;;11.44;100.00;101941.75;4979681;28;20038;-79
2022/10/27 00:35:08;;;;;;;8.82;3.03;;;;;;;11.43;100.00;101939.28;4981872;28;20395;-78
2022/10/27 00:37:34;;;;;;;5.28;2.83;;;;;;;11.42;100.00;101945.44;5004594;28;20041;-78
2022/10/27 00:39:59;;;;;;;7.95;2.80;;;;;;;11.39;100.00;101943.91;4987918;28;20432;-78
2022/10/27 00:42:24;;;;;;;7.22;2.72;;;;;;;11.38;100.00;101944.88;4980906;28;20034;-80
2022/10/27 00:44:50;;;;;;;7.35;2.65;;;;;;;11.40;100.00;101947.34;4988635;28;20034;-77
2022/10/27 00:47:23;;;;;;;8.02;3.00;;;;;;;11.37;100.00;101956.22;4985110;28;20031;-79
2022/10/27 00:50:03;;;;;;;6.90;2.97;;;;;;;11.35;100.00;101946.94;4981462;28;20038;-77
2022/10/27 00:52:33;;;;;;;4.90;2.17;;;;;;;11.33;100.00;101956.63;4971111;28;20030;-78
2022/10/27 00:55:07;;;;;;;4.80;2.05;;;;;;;11.31;100.00;101948.97;4969133;28;20545;-77
2022/10/27 00:57:34;;;;;;;5.25;2.15;;;;;;;11.30;100.00;101961.13;5002061;28;20044;-77
2022/10/27 01:00:02;;;;;;;11.55;3.28;;;;;;;11.30;100.00;101955.09;5002346;28;20124;-78
2022/10/27 01:02:27;;;;;;;7.72;2.80;;;;;;;11.29;100.00;101959.47;5001292;28;20503;-78
2022/10/27 01:05:15;;;;;;;10.55;3.67;;;;;;;11.30;100.00;101962.88;5005410;28;20076;-78
2022/10/27 01:07:43;;;;;;;16.95;2.90;;;;;;;11.24;100.00;101958.22;5006360;28;20037;-77
2022/10/27 01:10:09;;;;;;;9.68;2.72;;;;;;;11.21;100.00;101967.13;4988036;28;20038;-78
2022/10/27 01:12:35;;;;;;;5.47;2.55;;;;;;;11.21;100.00;101958.50;4971791;28;20521;-78
2022/10/27 01:15:02;;;;;;;9.80;2.63;;;;;;;11.20;100.00;101964.66;5003086;28;20046;-77
2022/10/27 01:17:55;;;;;;;7.45;3.08;;;;;;;11.28;100.00;101968.25;5005513;28;20068;-78
2022/10/27 01:20:49;;;;;;;6.53;2.70;;;;;;;11.20;100.00;101975.03;4985758;28;20434;-78
2022/10/27 01:23:31;;;;;;;5.15;2.40;;;;;;;11.17;100.00;101976.13;4979714;28;20481;-78
2022/10/27 01:26:15;;;;;;;4.50;2.45;;;;;;;11.12;100.00;101975.69;4997302;28;20048;-78
2022/10/27 01:28:41;;;;;;;5.53;2.45;;;;;;;11.10;100.00;101975.81;4989220;28;20038;-77
2022/10/27 01:31:08;;;;;;;6.57;2.47;;;;;;;11.08;100.00;101979.50;5001383;28;20113;-77
2022/10/27 01:33:50;;;;;;;8.25;2.65;;;;;;;11.08;100.00;101980.31;4972857;28;20038;-76
2022/10/27 01:36:31;;;;;;;11.43;2.97;;;;;;;11.05;100.00;101980.56;4991465;28;20038;-76
2022/10/27 01:39:15;;;;;;;9.90;3.20;;;;;;;11.12;100.00;101978.28;5002271;28;20088;-77
2022/10/27 01:41:45;;;;;;;9.93;3.03;;;;;;;11.17;100.00;101983.91;4969882;28;20054;-79
2022/10/27 01:44:18;;;;;;;10.68;3.60;;;;;;;11.29;100.00;101980.25;4985329;28;20034;-77
2022/10/27 01:46:43;;;;;;;8.53;2.77;;;;;;;11.23;100.00;101992.94;4990338;28;20559;-77
2022/10/27 01:49:09;;;;;;;9.27;2.83;;;;;;;11.19;100.00;101988.94;4995436;28;20037;-76
2022/10/27 01:51:35;;;;;;;7.97;2.72;;;;;;;11.15;100.00;101988.41;4990405;28;20034;-77
2022/10/27 01:54:02;;;;;;;10.70;3.15;;;;;;;11.14;100.00;101985.94;4983135;28;20064;-77
2022/10/27 01:56:37;;;;;;;8.20;3.15;;;;;;;11.06;100.00;101994.38;5009280;28;20045;-76
2022/10/27 01:59:02;;;;;;;8.02;3.40;;;;;;;11.03;100.00;101995.44;5009166;28;20046;-76
2022/10/27 02:01:54;;;;;;;11.32;3.38;;;;;;;11.00;100.00;101987.09;4994590;28;20108;-76
2022/10/27 02:04:48;;;;;;;8.32;3.17;;;;;;;11.02;100.00;101991.22;4986562;28;20073;-76
2022/10/27 02:07:21;;;;;;;;;;;;;;;11.00;100.00;101981.91;4991878;28;20037;-77
2022/10/27 02:09:55;;;;;;;9.43;3.38;;;;;;;10.95;100.00;101984.91;5006179;28;19924;-76
2022/10/27 02:12:27;;;;;;;8.90;3.70;;;;;;;10.98;100.00;101983.81;5008239;28;20041;-77
2022/10/27 02:14:56;;;;;;;7.72;4.55;;;;;;;10.96;100.00;101985.72;5004783;28;20034;-76
2022/10/27 02:17:25;;;;;;;12.38;4.55;;;;;;;10.93;100.00;101981.63;4990425;28;20038;-76
2022/10/27 02:19:54;;;;;;;12.45;4.22;;;;;;;10.91;100.00;101981.75;4989184;28;20757;-77
2022/10/27 02:22:22;;;;;;;11.20;3.33;;;;;;;10.88;100.00;101979.41;4991120;28;20030;-76
2022/10/27 02:24:47;;;;;;;9.85;4.93;;;;;;;10.87;100.00;101977.78;5009286;28;20041;-77
2022/10/27 02:27:23;;;;;;;10.68;5.88;;;;;;;10.92;100.00;101977.38;4992368;28;20037;-77
2022/10/27 02:29:52;;;;;;;16.13;6.32;;;;;;;11.04;100.00;101978.94;4974444;28;20045;-78
2022/10/27 02:32:20;;;;;;;11.38;5.47;;;;;;;11.03;100.00;101974.69;4995783;28;20107;-78
2022/10/27 02:34:48;;;;;;;7.22;4.20;;;;;;;10.99;100.00;101973.31;5005156;28;20503;-77
2022/10/27 02:37:41;;;;;;;16.58;5.15;;;;;;;11.03;100.00;101977.28;4991983;28;20044;-77
2022/10/27 02:40:08;;;;;;;7.75;4.18;;;;;;;11.12;100.00;101977.47;5005382;28;20053;-82
2022/10/27 02:42:33;;;;;;;12.50;4.03;;;;;;;11.10;100.00;101981.00;4997915;28;20045;-76
2022/10/27 02:44:59;;;;;;;11.30;3.85;;;;;;;11.14;100.00;101985.94;4986182;28;20033;-78
2022/10/27 02:47:24;;;;;;;14.90;4.13;;;;;;;11.21;100.00;101984.47;5003060;28;20607;-77
2022/10/27 02:49:50;;;;;;;9.68;4.13;;;;;;;11.29;100.00;101984.63;4977910;28;20042;-80
2022/10/27 02:52:15;;;;;;;8.80;5.40;;;;;;;11.29;100.00;101982.84;4990271;28;20034;-76
2022/10/27 02:54:41;;;;;;;10.80;5.30;;;;;;;11.21;100.00;101976.69;4996734;28;20511;-76
2022/10/27 02:57:07;;;;;;;12.32;5.45;;;;;;;11.17;100.00;101978.72;4985100;28;20038;-77
2022/10/27 02:59:34;;;;;;;14.82;6.47;;;;;;;11.24;100.00;101979.00;4989107;28;20043;-77
2022/10/27 03:01:59;;;;;;;13.20;6.88;;;;;;;11.29;100.00;101974.25;5008558;28;20038;-78
2022/10/27 03:04:24;;;;;;;10.57;6.78;;;;;;;11.35;100.00;101975.50;4995643;28;20502;-76
2022/10/27 03:06:50;;;;;;;14.07;7.18;;;;;;;11.35;100.00;101965.91;4990292;28;20038;-78
2022/10/27 03:09:15;;;;;;;13.02;7.22;;;;;;;11.30;100.00;101963.72;4978535;28;20046;-76
2022/10/27 03:11:41;;;;;;;15.70;5.93;;;;;;;11.25;100.00;101965.09;4991486;28;20042;-77
2022/10/27 03:14:06;;;;;;;12.68;5.93;;;;;;;11.34;100.00;101968.66;5006173;28;20928;-77
2022/10/27 03:16:32;;;;;;;12.48;6.10;;;;;;;11.28;100.00;101970.00;5002331;28;20048;-78
2022/10/27 03:18:57;;;;;;;24.02;5.88;;;;;;;11.25;100.00;101967.69;4973071;28;20565;-78
2022/10/27 03:21:23;;;;;;;12.88;5.15;;;;;;;11.31;100.00;101969.75;4989783;28;20054;-76
2022/10/27 03:23:49;;;;;;;17.95;4.80;;;;;;;11.37;100.00;101971.81;4977100;28;20053;-79
2022/10/27 03:26:14;;;;;;;8.88;4.43;;;;;;;11.45;100.00;101961.59;4996716;28;20045;-79
2022/10/27 03:28:39;;;;;;;29.02;5.53;;;;;;;11.36;100.00;101954.59;4987300;28;20038;-76
2022/10/27 03:31:05;;;;;;;17.80;5.13;;;;;;;11.39;100.00;101956.09;4982952;28;20054;-79
2022/10/27 03:33:31;;;;;;;15.10;6.20;;;;;;;11.37;100.00;101958.81;4993418;28;20037;-79
2022/10/27 03:35:58;;;;;;;16.13;5.22;;;;;;;11.35;100.00;101947.75;4959165;28;20033;-78
2022/10/27 03:38:23;;;;;;;14.70;5.22;;;;;;;11.38;100.00;101949.28;5004444;28;20040;-76
2022/10/27 03:40:49;;;;;;;9.73;5.63;;;;;;;11.35;100.00;101950.34;4989408;28;20403;-77
2022/10/27 03:43:14;;;;;;;11.48;6.55;;;;;;;11.34;100.00;101951.31;4993486;28;20050;-78
2022/10/27 03:45:40;;;;;;;11.25;7.75;;;;;;;11.36;100.00;101961.53;4995603;28;20046;-78
2022/10/27 03:48:09;;;;;;;14.68;7.18;;;;;;;11.34;100.00;101953.91;4982130;28;20031;-80
2022/10/27 03:50:35;;;;;;;16.50;6.72;;;;;;;11.50;100.00;101954.19;4983796;28;20069;-78
2022/10/27 03:53:02;;;;;;;15.50;5.55;;;;;;;11.49;100.00;101947.38;4994997;28;20798;-77
2022/10/27 03:55:28;;;;;;;16.55;6.82;;;;;;;11.43;100.00;101947.91;4990812;28;20407;-77
2022/10/27 03:57:53;;;;;;;16.63;8.10;;;;;;;11.51;100.00;101955.03;5005477;28;20026;-77
2022/10/27 04:00:19;;;;;;;11.10;7.30;;;;;;;11.42;100.00;101953.25;4980623;28;20030;-79
2022/10/27 04:02:44;;;;;;;15.55;7.32;;;;;;;11.46;100.00;101952.81;4977088;28;20130;-79
2022/10/27 04:05:10;;;;;;;9.73;6.18;;;;;;;11.44;100.00;101949.53;4989316;28;20089;-75
2022/10/27 04:07:35;;;;;;;15.75;6.13;;;;;;;11.45;100.00;101950.34;4990956;28;20048;-78
2022/10/27 04:10:01;;;;;;;9.13;6.07;;;;;;;11.57;100.00;101957.09;4989079;28;20041;-78
2022/10/27 04:12:26;;;;;;;17.40;5.78;;;;;;;11.59;100.00;101947.38;4988597;28;20045;-80
2022/10/27 04:14:52;;;;;;;12.63;4.90;;;;;;;11.39;100.00;101953.50;4998186;28;20074;-78
2022/10/27 04:17:18;;;;;;;16.90;5.50;;;;;;;11.42;100.00;101946.25;4972845;28;20120;-78
2022/10/27 04:19:43;;;;;;;20.50;6.38;;;;;;;11.50;100.00;101946.41;4985167;28;20112;-77
2022/10/27 04:22:09;;;;;;;15.57;4.97;;;;;;;11.52;100.00;101943.69;4977997;28;20041;-79
2022/10/27 04:24:34;;;;;;;11.23;5.40;;;;;;;11.49;100.00;101946.56;4969102;28;20034;-77
2022/10/27 04:27:00;;;;;;;13.82;6.28;;;;;;;11.53;100.00;101940.13;4980034;28;20475;-78
2022/10/27 04:29:25;;;;;;;8.05;4.45;;;;;;;11.56;100.00;101949.44;4988700;28;20057;-78
2022/10/27 04:31:51;;;;;;;12.90;4.25;;;;;;;11.55;100.00;101947.81;4981563;28;20034;-80
2022/10/27 04:34:16;;;;;;;12.05;3.67;;;;;;;11.48;100.00;101948.31;5008206;28;20101;-80
2022/10/27 04:36:42;;;;;;;15.25;3.40;;;;;;;11.49;100.00;101955.16;4981426;28;20038;-78
2022/10/27 04:39:12;;;;;;;8.45;4.22;;;;;;;11.48;100.00;101952.69;5002049;28;20072;-75
2022/10/27 04:41:38;;;;;;;10.75;3.45;;;;;;;11.44;100.00;101952.13;5005489;28;20038;-75
2022/10/27 04:44:04;;;;;;;13.10;4.00;;;;;;;11.58;100.00;101942.31;4997068;28;20081;-78
2022/10/27 04:46:29;;;;;;;9.30;3.58;;;;;;;11.47;100.00;101946.69;4994655;28;20038;-79
2022/10/27 04:48:55;;;;;;;8.25;3.15;;;;;;;11.54;100.00;101941.75;4991259;28;20090;-78
2022/10/27 04:51:20;;;;;;;10.68;3.80;;;;;;;11.40;100.00;101937.78;5008277;28;20038;-76
2022/10/27 04:53:45;;;;;;;6.93;3.50;;;;;;;11.45;100.00;101942.56;4995082;28;20049;-81
2022/10/27 04:56:11;;;;;;;9.82;3.60;;;;;;;11.52;100.00;101938.47;4994419;28;20048;-79
2022/10/27 04:58:36;;;;;;;9.48;3.72;;;;;;;11.49;100.00;101936.16;4986004;28;20041;-77
2022/10/27 05:01:09;;;;;;;12.13;4.20;;;;;;;11.44;100.00;101944.34;4969316;28;20065;-76
2022/10/27 05:03:34;;;;;;;16.00;4.53;;;;;;;11.47;100.00;101945.84;5001773;28;20065;-81
2022/10/27 05:06:00;;;;;;;10.25;4.38;;;;;;;11.45;100.00;101948.59;4989411;28;20040;-78
2022/10/27 05:08:26;;;;;;;14.35;4.93;;;;;;;11.39;100.00;101943.91;4987650;28;20402;-80
2022/10/27 05:10:51;;;;;;;10.75;4.82;;;;;;;11.46;100.00;101952.00;4991223;28;20100;-76
2022/10/27 05:13:16;;;;;;;15.82;4.57;;;;;;;11.56;100.00;101946.81;4992756;28;20378;-76
2022/10/27 05:15:42;;;;;;;12.52;4.80;;;;;;;11.44;100.00;101946.94;5003032;28;20045;-78
2022/10/27 05:18:07;;;;;;;15.20;4.43;;;;;;;11.50;100.00;101946.41;4981506;28;20030;-78
2022/10/27 05:20:33;;;;;;;16.27;4.70;;;;;;;11.52;100.00;101948.88;4971434;28;20026;-78
2022/10/27 05:22:58;;;;;;;17.90;4.57;;;;;;;11.47;100.00;101949.28;4983635;28;20046;-79
2022/10/27 05:25:24;;;;;;;12.60;4.50;;;;;;;11.50;100.00;101950.78;4988038;28;20038;-76
2022/10/27 05:27:49;;;;;;;9.90;3.95;;;;;;;11.42;100.00;101954.06;4989341;28;20060;-75
2022/10/27 05:30:15;;;;;;;14.20;5.22;;;;;;;11.37;100.00;101945.81;4991911;28;20080;-76
2022/10/27 05:32:40;;;;;;;15.98;5.30;;;;;;;11.43;100.00;101940.13;4962288;28;20057;-78
2022/10/27 05:35:06;;;;;;;10.73;4.47;;;;;;;11.45;100.00;101945.16;4973869;28;20038;-77
2022/10/27 05:37:31;;;;;;;13.18;4.72;;;;;;;11.60;100.00;101937.81;4993395;28;20121;-77
2022/10/27 05:39:57;;;;;;;9.75;4.10;;;;;;;11.44;100.00;101948.72;4989886;28;20042;-77
2022/10/27 05:42:22;;;;;;;10.30;4.55;;;;;;;11.40;100.00;101950.78;5008861;28;20041;-77
2022/10/27 05:44:48;;;;;;;15.25;4.90;;;;;;;11.45;100.00;101955.56;4989394;28;20514;-81
2022/10/27 05:47:13;;;;;;;14.30;5.30;;;;;;;11.46;100.00;101952.81;5008327;28;20045;-75
2022/10/27 05:49:38;;;;;;;7.60;4.35;;;;;;;11.49;100.00;101943.97;4991644;28;20037;-77
2022/10/27 05:52:04;;;;;;;21.58;5.40;;;;;;;11.40;100.00;101952.56;4988493;28;20038;-77
2022/10/27 05:54:29;;;;;;;10.75;4.50;;;;;;;11.43;100.00;101957.47;5011669;28;20046;-77
2022/10/27 05:56:55;;;;;;;7.57;3.60;;;;;;;11.32;100.00;101952.38;5007199;28;20042;-77
2022/10/27 05:59:20;;;;;;;12.98;4.93;;;;;;;11.33;100.00;101954.03;4999674;28;20047;-77
2022/10/27 06:01:46;;;;;;;10.70;3.95;;;;;;;11.45;100.00;101955.56;4997632;28;20022;-76
2022/10/27 06:04:11;;;;;;;10.40;4.72;;;;;;;11.45;100.00;101959.00;4975974;28;20038;-78
2022/10/27 06:06:36;;;;;;;13.00;3.58;;;;;;;11.50;100.00;101963.78;5006866;28;20406;-79
2022/10/27 06:09:02;;;;;;;8.93;4.10;;;;;;;11.55;100.00;101961.59;4980169;28;20414;-79
2022/10/27 06:11:27;;;;;;;12.90;4.35;;;;;;;11.56;100.00;101960.63;4990890;28;20472;-79
2022/10/27 06:13:53;;;;;;;14.05;3.95;;;;;;;11.58;100.00;101965.69;4993594;28;20375;-76
2022/10/27 06:16:20;;;;;;;14.43;4.22;;;;;;;11.52;100.00;101961.84;4993867;28;20049;-78
2022/10/27 06:18:46;;;;;;;17.73;3.85;;;;;;;11.57;100.00;101957.09;4993101;28;20109;-76
2022/10/27 06:21:14;;;;;;;14.23;3.33;;;;;;;11.59;100.00;101965.56;4976783;28;20423;-84
2022/10/27 06:23:40;;;;;;;8.57;3.22;;;;;;;11.58;100.00;101960.50;5010267;28;20092;-77
2022/10/27 06:26:09;;;;;;;9.60;3.38;;;;;;;11.58;100.00;101965.69;4982142;28;20038;-80
2022/10/27 06:28:35;;;;;;;12.02;3.25;;;;;;;11.66;100.00;101964.09;5006650;28;20038;-78
2022/10/27 06:31:02;;;;;;;7.28;3.35;;;;;;;11.54;100.00;101969.53;4992943;28;20106;-77
2022/10/27 06:33:27;;;;;;;12.55;4.10;;;;;;;11.53;100.00;101973.06;5009535;28;20040;-76
2022/10/27 06:35:53;;;;;;;14.27;4.50;;;;;;;11.56;100.00;101970.22;4991538;28;20446;-76
2022/10/27 06:38:18;;;;;;;11.75;4.13;;;;;;;11.55;100.00;101974.59;5011989;28;20402;-75
2022/10/27 06:40:44;;;;;;;8.70;3.60;;;;;;;11.50;100.00;101980.16;4988354;28;20403;-80
2022/10/27 06:43:13;;;;;;;12.07;4.05;;;;;;;11.63;100.00;101973.91;5009938;28;20033;-76
2022/10/27 06:45:39;;;;;;;12.23;3.47;;;;;;;11.68;100.00;101967.38;5000785;28;20065;-78
2022/10/27 06:48:07;;;;;;;7.40;3.38;;;;;;;11.64;100.00;101971.19;4988357;28;20037;-78
2022/10/27 06:50:33;;;;;;;10.45;3.67;;;;;;;11.69;100.00;101966.38;4998144;28;20057;-78
2022/10/27 06:53:02;;;;;;;12.05;4.03;;;;;;;11.81;100.00;101966.25;4994242;28;20410;-78
2022/10/27 06:55:28;;;;;;;6.75;4.13;;;;;;;11.82;100.00;101957.53;5003283;28;20073;-78
2022/10/27 06:57:54;;;;;;;10.90;3.72;;;;;;;11.79;100.00;101969.03;4993524;28;20390;-76
2022/10/27 07:00:20;;;;;;;15.32;4.32;;;;;;;11.90;100.00;101955.09;4992440;28;20533;-80
2022/10/27 07:02:45;;;;;;;9.25;3.50;;;;;;;11.94;100.00;101961.69;4981463;28;21038;-79
2022/10/27 07:05:11;;;;;;;11.25;3.72;;;;;;;12.01;100.00;101961.94;4987392;28;20056;-78
2022/10/27 07:07:37;;;;;;;11.68;4.60;;;;;;;12.01;100.00;101952.34;5005565;28;20030;-77
2022/10/27 07:10:05;;;;;;;14.15;3.47;;;;;;;11.97;100.00;101944.97;4988180;28;20519;-77
2022/10/27 07:12:30;;;;;;;7.80;3.45;;;;;;;12.07;100.00;101953.59;5006693;28;20032;-81
2022/10/27 07:14:56;;;;;;;10.02;3.60;;;;;;;12.07;100.00;101950.97;4988339;28;21610;-81
2022/10/27 07:17:24;;;;;;;9.75;3.10;;;;;;;12.16;100.00;101947.56;4996797;28;20021;-81
2022/10/27 07:19:50;;;;;;;9.32;3.22;;;;;;;12.29;100.00;101936.88;4974348;28;20067;-79
2022/10/27 07:22:15;;;;;;;7.13;3.30;;;;;;;12.36;100.00;101930.16;5007077;28;20049;-79
2022/10/27 07:24:40;;;;;;;10.07;3.33;;;;;;;12.42;100.00;101934.78;4976904;28;20050;-80
2022/10/27 07:27:06;;;;;;;13.63;2.80;;;;;;;12.49;100.00;101926.41;4992689;28;20029;-81
2022/10/27 07:29:31;;;;;;;7.25;2.83;;;;;;;12.58;100.00;101941.19;4991389;28;20046;-81
2022/10/27 07:31:57;;;;;;;13.75;3.03;;;;;;;12.55;100.00;101931.88;4994324;28;20037;-77
2022/10/27 07:34:22;;;;;;;7.85;2.85;;;;;;;12.54;100.00;101925.03;4988699;28;20046;-81
2022/10/27 07:36:48;;;;;;;6.03;3.30;;;;;;;12.63;100.00;101937.19;4978362;28;20531;-81
2022/10/27 07:39:13;;;;;;;6.30;2.47;;;;;;;12.69;100.00;101946.22;5000600;28;20042;-79
2022/10/27 07:41:39;;;;;;;9.75;2.80;;;;;;;12.80;100.00;101940.84;4980841;28;20042;-79
2022/10/27 07:44:04;;;;;;;8.02;2.63;;;;;;;12.81;100.00;101932.06;4986814;28;20042;-78
2022/10/27 07:46:30;;;;;;;10.38;3.00;;;;;;;12.81;100.00;101936.47;5011023;28;20029;-82
2022/10/27 07:48:55;;;;;;;8.63;2.95;;;;;;;13.00;100.00;101935.56;4995539;28;20038;-82
2022/10/27 07:51:21;;;;;;;9.68;2.95;;;;;;;13.07;100.00;101939.22;5003198;28;20525;-79
2022/10/27 07:53:49;;;;;;;8.32;2.63;;;;;;;13.10;100.00;101936.31;4989015;28;20422;-79
2022/10/27 07:56:15;;;;;;;11.45;2.60;;;;;;;13.36;100.00;101931.28;5008475;28;20029;-79
2022/10/27 07:58:41;;;;;;;8.45;2.42;;;;;;;13.72;100.00;101928.69;5010295;28;20124;-81
2022/10/27 08:01:06;;;;;;;5.80;2.05;;;;;;;14.13;100.00;101929.03;5008526;28;20635;-82
2022/10/27 08:03:33;;;;;;;14.35;3.38;;;;;;;14.41;97.62;101923.69;4975376;28;20073;-81
2022/10/27 08:06:04;;;;;;;8.77;2.40;;;;;;;14.75;96.10;101928.94;4990741;28;20073;-83
2022/10/27 08:08:30;;;;;;;6.55;2.15;;;;;;;15.14;92.98;101923.25;4991045;28;20096;-82
2022/10/27 08:10:56;;;;;;;9.63;2.15;;;;;;;15.27;91.45;101917.53;4988651;28;20089;-80
2022/10/27 08:13:21;;;;;;;13.52;3.38;;;;;;;15.40;90.63;101921.50;4987609;28;20030;-82
2022/10/27 08:15:47;;;;;;;5.22;2.00;;;;;;;15.44;89.14;101925.41;4977947;28;20034;-81
2022/10/27 08:18:13;;;;;;;6.15;1.85;;;;;;;15.68;89.11;101917.59;4978301;28;20044;-79
2022/10/27 08:20:41;;;;;;;4.38;1.90;;;;;;;15.99;87.84;101927.44;5006273;28;20125;-79
2022/10/27 08:23:10;;;;;;;9.60;1.88;;;;;;;16.31;85.66;101928.38;5004568;28;20045;-79
2022/10/27 08:25:36;;;;;;;8.48;1.98;;;;;;;16.50;84.41;101922.78;4990004;28;20048;-83
2022/10/27 08:28:02;;;;;;;5.93;1.65;;;;;;;16.25;84.67;101924.63;4991977;28;20060;-77
2022/10/27 08:30:29;;;;;;;8.18;1.83;;;;;;;16.55;84.54;101928.31;4988440;28;20518;-78
2022/10/27 08:32:56;;;;;;;7.28;1.83;;;;;;;16.22;84.91;101924.97;4992442;28;20035;-84
2022/10/27 08:35:23;;;;;;;8.52;2.45;;;;;;;16.42;84.18;101916.75;4990471;28;20044;-80
2022/10/27 08:37:48;;;;;;;8.40;1.70;;;;;;;16.33;84.32;101919.41;4988625;28;21001;-78
2022/10/27 08:40:14;;;;;;;8.80;1.58;;;;;;;16.29;84.37;101925.13;4993468;28;20125;-78
2022/10/27 08:42:51;;;;;;;8.18;2.65;;;;;;;16.25;85.01;101914.16;5001649;28;20103;-78
2022/10/27 08:45:24;;;;;;;6.32;1.80;;;;;;;16.49;84.21;101923.75;5006843;28;20113;-78
2022/10/27 08:47:53;;;;;;;6.00;1.92;;;;;;;16.40;84.77;101922.16;4992851;28;20056;-82
2022/10/27 08:50:23;;;;;;;7.28;2.17;;;;;;;16.49;84.36;101923.75;5002330;28;20503;-81
2022/10/27 08:53:01;;;;;;;7.30;2.42;;;;;;;16.35;83.88;101917.44;4997008;28;20037;-80
2022/10/27 08:55:51;;;;;;;7.28;2.10;;;;;;;16.00;85.62;101912.56;4989283;28;20510;-80
2022/10/27 08:58:37;;;;;;;6.45;1.80;;;;;;;16.01;86.44;101914.19;4993136;28;20061;-83
2022/10/27 09:01:17;;;;;;;6.30;2.30;;;;;;;15.78;87.71;101917.47;4981611;28;20030;-80
2022/10/27 09:03:58;;;;;;;9.75;1.90;;;;;;;15.93;87.87;101917.63;4985373;28;20046;-79
2022/10/27 09:06:32;;;;;;;7.85;1.90;;;;;;;15.86;87.95;101916.66;4978078;28;20042;-77
2022/10/27 09:09:00;;;;;;;7.03;2.88;;;;;;;15.85;89.00;101899.34;4974018;28;20096;-82
2022/10/27 09:11:44;;;;;;;5.47;1.70;;;;;;;15.80;88.13;101891.16;4973152;28;20045;-82
2022/10/27 09:14:34;;;;;;;5.55;2.10;;;;;;;15.83;88.35;101896.88;4988410;28;20046;-80
2022/10/27 09:17:08;;;;;;;3.13;1.60;;;;;;;15.90;88.54;101887.41;4984008;28;20234;-82
2022/10/27 09:19:43;;;;;;;10.27;1.90;;;;;;;15.98;87.88;101877.91;4970329;28;20038;-77
2022/10/27 09:22:16;;;;;;;6.90;1.83;;;;;;;15.95;88.26;101879.06;4957589;28;20658;-80
2022/10/27 09:24:42;;;;;;;8.32;2.38;;;;;;;15.94;88.15;101872.19;4969610;28;20040;-83
2022/10/27 09:27:12;;;;;;;5.60;1.75;;;;;;;15.88;88.53;101872.84;4994506;28;20488;-80
2022/10/27 09:29:38;;;;;;;4.15;1.52;;;;;;;16.03;87.67;101878.22;4999116;28;20158;-78
2022/10/27 09:32:22;;;;;;;4.05;1.35;;;;;;;16.04;87.50;101872.81;4989293;28;20426;-79
2022/10/27 09:34:53;;;;;;;12.02;2.60;;;;;;;16.12;87.69;101875.44;4991176;28;20042;-83
2022/10/27 09:37:20;;;;;;;4.40;1.88;;;;;;;16.25;87.66;101868.88;4995768;28;20066;-81
2022/10/27 09:39:50;;;;;;;10.32;1.50;;;;;;;16.33;86.93;101866.22;4972351;28;20038;-82
2022/10/27 09:42:17;;;;;;;6.28;1.95;;;;;;;16.30;87.47;101856.91;5004652;28;20426;-80
2022/10/27 09:44:57;;;;;;;3.95;1.60;;;;;;;16.35;86.72;101849.38;4999019;28;20498;-79
2022/10/27 09:47:26;;;;;;;9.32;1.83;;;;;;;16.52;86.31;101849.34;4974548;28;20628;-82
2022/10/27 09:49:52;;;;;;;6.03;1.23;;;;;;;16.54;86.10;101847.34;5000000;28;20569;-81
2022/10/27 09:52:34;;;;;;;3.95;1.33;;;;;;;16.45;86.08;101849.19;5009544;28;20038;-79
2022/10/27 09:54:59;;;;;;;4.70;1.40;;;;;;;16.47;86.50;101849.81;5002803;28;20073;-86
2022/10/27 09:57:30;;;;;;;8.07;1.73;;;;;;;16.59;85.84;101845.03;5005894;28;20037;-81
2022/10/27 10:00:01;;;;;;;5.05;1.30;;;;;;;16.63;85.46;101837.66;5002655;28;20037;-81
2022/10/27 10:02:35;;;;;;;4.80;1.10;;;;;;;16.67;85.47;101833.69;4989634;28;20041;-82
2022/10/27 10:05:05;;;;;;;7.30;2.70;;;;;;;16.70;85.85;101836.78;4973946;28;20042;-81
2022/10/27 10:07:39;;;;;;;8.70;1.40;;;;;;;16.74;85.83;101837.25;4989415;28;20030;-84
2022/10/27 10:10:31;;;;;;;10.90;2.17;;;;;;;16.86;85.75;101830.69;4987009;28;20122;-82
2022/10/27 10:13:03;;;;;;;11.73;2.28;;;;;;;16.96;83.93;101827.84;4974940;28;20503;-78
2022/10/27 10:15:29;;;;;;;6.93;1.73;;;;;;;16.97;85.43;101828.66;4981895;28;20038;-79
2022/10/27 10:17:57;;;;;;;6.55;1.50;;;;;;;17.06;83.94;101820.56;4990282;28;20097;-81
2022/10/27 10:20:38;;;;;;;4.13;1.10;;;;;;;17.10;84.39;101824.50;5012298;28;20076;-78
2022/10/27 10:23:19;;;;;;;9.50;1.73;;;;;;;17.17;84.35;101821.16;4994022;28;20034;-86
2022/10/27 10:25:48;;;;;;;6.32;1.75;;;;;;;17.16;84.11;101824.75;4995733;28;20038;-80
2022/10/27 10:28:32;;;;;;;5.43;1.58;;;;;;;17.24;84.45;101827.34;4993484;28;20047;-85
2022/10/27 10:30:58;;;;;;;10.88;3.15;;;;;;;17.30;84.66;101819.59;4993794;28;20124;-83
2022/10/27 10:33:31;;;;;;;4.35;1.40;;;;;;;17.42;84.10;101819.16;4993175;28;20033;-83
2022/10/27 10:35:57;;;;;;;10.43;2.50;;;;;;;17.47;82.06;101812.41;4994524;28;20512;-83
2022/10/27 10:38:22;;;;;;;7.03;1.50;;;;;;;17.58;81.09;101803.31;5008717;28;20084;-82
2022/10/27 10:41:10;;;;;;;10.30;1.85;;;;;;;17.57;81.10;101796.41;4993582;28;20550;-80
2022/10/27 10:43:36;;;;;;;4.13;1.52;;;;;;;17.64;81.07;101796.53;5000484;28;20045;-80
2022/10/27 10:46:02;;;;;;;8.27;1.75;;;;;;;17.61;81.44;101799.50;5005619;28;20026;-81
2022/10/27 10:48:46;;;;;;;6.80;1.65;;;;;;;17.53;82.40;101797.78;4987515;28;20026;-83
2022/10/27 10:51:12;;;;;;;4.07;1.15;;;;;;;17.64;82.32;101804.41;4997051;28;20259;-85
2022/10/27 10:54:12;;;;;;;12.18;1.85;;;;;;;17.88;81.20;101792.88;4989399;28;20058;-80
2022/10/27 10:56:38;;;;;;;7.28;2.08;;;;;;;17.88;81.47;101785.00;4968417;28;20132;-83
2022/10/27 10:59:13;;;;;;;8.90;2.15;;;;;;;17.79;82.09;101788.69;4993589;28;20076;-82
2022/10/27 11:01:51;;;;;;;9.10;1.70;;;;;;;18.01;81.96;101779.13;4992067;28;20041;-81
2022/10/27 11:04:22;;;;;;;11.95;2.50;;;;;;;18.21;80.18;101787.25;4979061;28;20081;-81
2022/10/27 11:07:02;;;;;;;7.68;1.70;;;;;;;18.24;79.70;101779.84;4987708;28;20033;-80
2022/10/27 11:09:35;;;;;;;9.00;1.77;;;;;;;18.17;80.21;101781.56;4970658;28;20044;-82
2022/10/27 11:12:03;;;;;;;3.67;1.45;;;;;;;18.22;80.90;101775.78;5005338;28;20034;-84
2022/10/27 11:14:29;;;;;;;8.65;2.50;;;;;;;18.31;80.77;101772.06;4994011;28;20049;-82
2022/10/27 11:17:00;;;;;;;9.68;2.05;;;;;;;18.31;79.66;101766.81;4995467;28;20053;-82
2022/10/27 11:19:30;;;;;;;5.50;1.70;;;;;;;18.32;80.37;101764.97;5010633;28;20041;-80
2022/10/27 11:22:00;;;;;;;8.48;1.90;;;;;;;18.39;80.28;101771.94;5006117;28;20030;-83
2022/10/27 11:24:35;;;;;;;6.80;1.30;;;;;;;18.47;80.79;101760.50;4991122;28;20046;-80